sensor_id;sensor_type;location;lat;lon;timestamp;P1;durP1;ratioP1;P2;durP2;ratioP2
15063;SDS011;7631;52.088;5.088;2023-03-01T00:01:03;5.50;;;4.57;;
15063;SDS011;7631;52.088;5.088;2023-03-01T00:03:28;5.03;;;4.17;;
15063;SDS011;7631;52.088;5.088;2023-03-01T00:05:54;5.27;;;4.40;;
15063;SDS011;7631;52.088;5.088;2023-03-01T00:08:19;5.10;;;4.07;;
15063;SDS011;7631;52.088;5.088;2023-03-01T00:10:44;5.73;;;4.57;;
15063;SDS011;7631;52.088;5.088;2023-03-01T00:13:09;4.43;;;4.03;;
15063;SDS011;7631;52.088;5.088;2023-03-01T00:15:37;5.37;;;4.07;;
15063;SDS011;7631;52.088;5.088;2023-03-01T00:18:03;5.23;;;4.70;;
15063;SDS011;7631;52.088;5.088;2023-03-01T00:20:28;5.07;;;4.57;;
15063;SDS011;7631;52.088;5.088;2023-03-01T00:22:53;4.93;;;4.43;;
15063;SDS011;7631;52.088;5.088;2023-03-01T00:25:18;5.00;;;4.50;;
15063;SDS011;7631;52.088;5.088;2023-03-01T00:27:43;5.30;;;4.80;;
15063;SDS011;7631;52.088;5.088;2023-03-01T00:30:09;5.47;;;4.83;;
15063;SDS011;7631;52.088;5.088;2023-03-01T00:32:34;5.50;;;4.67;;
15063;SDS011;7631;52.088;5.088;2023-03-01T00:34:59;6.00;;;4.87;;
15063;SDS011;7631;52.088;5.088;2023-03-01T00:37:25;4.83;;;4.33;;
15063;SDS011;7631;52.088;5.088;2023-03-01T00:39:50;5.93;;;4.73;;
15063;SDS011;7631;52.088;5.088;2023-03-01T00:42:15;6.33;;;4.97;;
15063;SDS011;7631;52.088;5.088;2023-03-01T00:44:41;5.40;;;4.17;;
15063;SDS011;7631;52.088;5.088;2023-03-01T00:47:06;5.47;;;4.90;;
15063;SDS011;7631;52.088;5.088;2023-03-01T00:49:31;4.57;;;4.03;;
15063;SDS011;7631;52.088;5.088;2023-03-01T00:51:56;5.63;;;4.60;;
15063;SDS011;7631;52.088;5.088;2023-03-01T00:54:22;4.83;;;4.33;;
15063;SDS011;7631;52.088;5.088;2023-03-01T00:56:47;5.00;;;4.50;;
15063;SDS011;7631;52.088;5.088;2023-03-01T00:59:12;5.47;;;4.20;;
15063;SDS011;7631;52.088;5.088;2023-03-01T01:01:37;6.43;;;4.90;;
15063;SDS011;7631;52.088;5.088;2023-03-01T01:04:04;5.07;;;4.13;;
15063;SDS011;7631;52.088;5.088;2023-03-01T01:06:30;4.90;;;4.20;;
15063;SDS011;7631;52.088;5.088;2023-03-01T01:08:56;4.93;;;4.10;;
15063;SDS011;7631;52.088;5.088;2023-03-01T01:11:22;5.47;;;4.87;;
15063;SDS011;7631;52.088;5.088;2023-03-01T01:13:48;6.13;;;4.77;;
15063;SDS011;7631;52.088;5.088;2023-03-01T01:16:14;5.47;;;4.70;;
15063;SDS011;7631;52.088;5.088;2023-03-01T01:18:39;5.13;;;4.43;;
15063;SDS011;7631;52.088;5.088;2023-03-01T01:21:09;5.13;;;4.63;;
15063;SDS011;7631;52.088;5.088;2023-03-01T01:23:36;5.50;;;4.50;;
15063;SDS011;7631;52.088;5.088;2023-03-01T01:26:08;5.30;;;4.60;;
15063;SDS011;7631;52.088;5.088;2023-03-01T01:28:34;5.37;;;4.40;;
15063;SDS011;7631;52.088;5.088;2023-03-01T01:30:59;5.00;;;4.50;;
15063;SDS011;7631;52.088;5.088;2023-03-01T01:33:25;5.37;;;4.33;;
15063;SDS011;7631;52.088;5.088;2023-03-01T01:35:50;6.00;;;4.80;;
15063;SDS011;7631;52.088;5.088;2023-03-01T01:38:16;5.93;;;4.73;;
15063;SDS011;7631;52.088;5.088;2023-03-01T01:40:45;6.97;;;5.03;;
15063;SDS011;7631;52.088;5.088;2023-03-01T01:43:21;5.70;;;5.07;;
15063;SDS011;7631;52.088;5.088;2023-03-01T01:45:46;5.10;;;4.60;;
15063;SDS011;7631;52.088;5.088;2023-03-01T01:48:13;5.07;;;4.57;;
15063;SDS011;7631;52.088;5.088;2023-03-01T01:50:39;5.57;;;5.03;;
15063;SDS011;7631;52.088;5.088;2023-03-01T01:53:09;5.97;;;4.70;;
15063;SDS011;7631;52.088;5.088;2023-03-01T01:55:35;5.53;;;4.10;;
15063;SDS011;7631;52.088;5.088;2023-03-01T01:58:02;5.13;;;4.63;;
15063;SDS011;7631;52.088;5.088;2023-03-01T02:00:30;6.37;;;4.80;;
15063;SDS011;7631;52.088;5.088;2023-03-01T02:02:56;6.10;;;4.90;;
15063;SDS011;7631;52.088;5.088;2023-03-01T02:07:47;5.90;;;4.83;;
15063;SDS011;7631;52.088;5.088;2023-03-01T02:10:13;5.07;;;4.57;;
15063;SDS011;7631;52.088;5.088;2023-03-01T02:12:38;5.67;;;4.93;;
15063;SDS011;7631;52.088;5.088;2023-03-01T02:15:04;5.97;;;4.90;;
15063;SDS011;7631;52.088;5.088;2023-03-01T02:17:30;5.63;;;4.77;;
15063;SDS011;7631;52.088;5.088;2023-03-01T02:20:03;6.00;;;4.70;;
15063;SDS011;7631;52.088;5.088;2023-03-01T02:22:32;5.90;;;5.27;;
15063;SDS011;7631;52.088;5.088;2023-03-01T02:25:07;5.70;;;5.10;;
15063;SDS011;7631;52.088;5.088;2023-03-01T02:27:50;4.93;;;4.43;;
15063;SDS011;7631;52.088;5.088;2023-03-01T02:30:20;5.93;;;5.07;;
15063;SDS011;7631;52.088;5.088;2023-03-01T02:32:46;5.83;;;4.70;;
15063;SDS011;7631;52.088;5.088;2023-03-01T02:35:13;6.50;;;4.53;;
15063;SDS011;7631;52.088;5.088;2023-03-01T02:37:39;5.63;;;4.67;;
15063;SDS011;7631;52.088;5.088;2023-03-01T02:40:06;7.10;;;5.40;;
15063;SDS011;7631;52.088;5.088;2023-03-01T02:42:36;6.37;;;5.13;;
15063;SDS011;7631;52.088;5.088;2023-03-01T02:45:06;5.33;;;4.83;;
15063;SDS011;7631;52.088;5.088;2023-03-01T02:47:31;5.80;;;5.20;;
15063;SDS011;7631;52.088;5.088;2023-03-01T02:49:56;5.10;;;4.60;;
15063;SDS011;7631;52.088;5.088;2023-03-01T02:53:04;5.27;;;4.50;;
15063;SDS011;7631;52.088;5.088;2023-03-01T02:55:14;5.70;;;5.10;;
15063;SDS011;7631;52.088;5.088;2023-03-01T02:57:43;6.83;;;5.30;;
15063;SDS011;7631;52.088;5.088;2023-03-01T03:00:09;5.90;;;4.70;;
15063;SDS011;7631;52.088;5.088;2023-03-01T03:02:36;7.10;;;5.40;;
15063;SDS011;7631;52.088;5.088;2023-03-01T03:05:11;6.27;;;4.27;;
15063;SDS011;7631;52.088;5.088;2023-03-01T03:07:39;5.50;;;4.90;;
15063;SDS011;7631;52.088;5.088;2023-03-01T03:10:05;6.43;;;5.33;;
15063;SDS011;7631;52.088;5.088;2023-03-01T03:12:31;5.47;;;4.77;;
15063;SDS011;7631;52.088;5.088;2023-03-01T03:14:56;6.17;;;5.07;;
15063;SDS011;7631;52.088;5.088;2023-03-01T03:17:21;6.43;;;5.30;;
15063;SDS011;7631;52.088;5.088;2023-03-01T03:19:46;6.57;;;4.90;;
15063;SDS011;7631;52.088;5.088;2023-03-01T03:22:12;6.10;;;5.50;;
15063;SDS011;7631;52.088;5.088;2023-03-01T03:24:37;6.33;;;5.47;;
15063;SDS011;7631;52.088;5.088;2023-03-01T03:27:03;6.53;;;5.83;;
15063;SDS011;7631;52.088;5.088;2023-03-01T03:29:28;5.80;;;5.20;;
15063;SDS011;7631;52.088;5.088;2023-03-01T03:31:54;7.07;;;5.73;;
15063;SDS011;7631;52.088;5.088;2023-03-01T03:34:19;6.90;;;5.73;;
15063;SDS011;7631;52.088;5.088;2023-03-01T03:36:44;6.13;;;5.53;;
15063;SDS011;7631;52.088;5.088;2023-03-01T03:39:09;6.90;;;5.50;;
15063;SDS011;7631;52.088;5.088;2023-03-01T03:41:34;6.00;;;5.40;;
15063;SDS011;7631;52.088;5.088;2023-03-01T03:44:00;7.03;;;5.67;;
15063;SDS011;7631;52.088;5.088;2023-03-01T03:46:25;6.03;;;5.37;;
15063;SDS011;7631;52.088;5.088;2023-03-01T03:48:51;5.90;;;5.30;;
15063;SDS011;7631;52.088;5.088;2023-03-01T03:51:17;6.93;;;5.63;;
15063;SDS011;7631;52.088;5.088;2023-03-01T03:53:42;6.07;;;5.17;;
15063;SDS011;7631;52.088;5.088;2023-03-01T03:56:08;6.30;;;5.43;;
15063;SDS011;7631;52.088;5.088;2023-03-01T03:58:33;6.30;;;5.47;;
15063;SDS011;7631;52.088;5.088;2023-03-01T04:00:59;7.40;;;5.50;;
15063;SDS011;7631;52.088;5.088;2023-03-01T04:03:26;6.20;;;5.37;;
15063;SDS011;7631;52.088;5.088;2023-03-01T04:05:51;6.00;;;5.40;;
15063;SDS011;7631;52.088;5.088;2023-03-01T04:08:17;6.13;;;5.53;;
15063;SDS011;7631;52.088;5.088;2023-03-01T04:10:45;6.87;;;5.70;;
15063;SDS011;7631;52.088;5.088;2023-03-01T04:13:12;6.27;;;5.57;;
15063;SDS011;7631;52.088;5.088;2023-03-01T04:15:37;6.73;;;5.83;;
15063;SDS011;7631;52.088;5.088;2023-03-01T04:18:04;6.43;;;5.57;;
15063;SDS011;7631;52.088;5.088;2023-03-01T04:20:30;7.33;;;5.80;;
15063;SDS011;7631;52.088;5.088;2023-03-01T04:22:57;6.43;;;5.40;;
15063;SDS011;7631;52.088;5.088;2023-03-01T04:25:23;6.27;;;5.47;;
15063;SDS011;7631;52.088;5.088;2023-03-01T04:27:48;6.03;;;5.40;;
15063;SDS011;7631;52.088;5.088;2023-03-01T04:30:14;7.10;;;5.43;;
15063;SDS011;7631;52.088;5.088;2023-03-01T04:32:39;6.13;;;5.50;;
15063;SDS011;7631;52.088;5.088;2023-03-01T04:35:04;6.67;;;5.67;;
15063;SDS011;7631;52.088;5.088;2023-03-01T04:37:29;7.23;;;5.87;;
15063;SDS011;7631;52.088;5.088;2023-03-01T04:39:55;6.50;;;5.70;;
15063;SDS011;7631;52.088;5.088;2023-03-01T04:42:20;6.90;;;6.17;;
15063;SDS011;7631;52.088;5.088;2023-03-01T04:44:45;6.67;;;5.90;;
15063;SDS011;7631;52.088;5.088;2023-03-01T04:47:10;5.93;;;5.30;;
15063;SDS011;7631;52.088;5.088;2023-03-01T04:49:36;7.73;;;6.33;;
15063;SDS011;7631;52.088;5.088;2023-03-01T04:52:01;7.03;;;6.33;;
15063;SDS011;7631;52.088;5.088;2023-03-01T04:54:32;6.50;;;5.70;;
15063;SDS011;7631;52.088;5.088;2023-03-01T04:56:58;6.43;;;5.83;;
15063;SDS011;7631;52.088;5.088;2023-03-01T04:59:23;6.10;;;5.50;;
15063;SDS011;7631;52.088;5.088;2023-03-01T05:01:49;7.00;;;5.70;;
15063;SDS011;7631;52.088;5.088;2023-03-01T05:04:14;7.23;;;5.97;;
15063;SDS011;7631;52.088;5.088;2023-03-01T05:06:39;6.80;;;5.47;;
15063;SDS011;7631;52.088;5.088;2023-03-01T05:09:05;7.13;;;5.80;;
15063;SDS011;7631;52.088;5.088;2023-03-01T05:11:30;7.17;;;6.03;;
15063;SDS011;7631;52.088;5.088;2023-03-01T05:13:58;6.80;;;5.90;;
15063;SDS011;7631;52.088;5.088;2023-03-01T05:16:24;8.63;;;6.23;;
15063;SDS011;7631;52.088;5.088;2023-03-01T05:18:49;8.03;;;6.03;;
15063;SDS011;7631;52.088;5.088;2023-03-01T05:21:16;6.57;;;5.30;;
15063;SDS011;7631;52.088;5.088;2023-03-01T05:23:41;6.37;;;5.77;;
15063;SDS011;7631;52.088;5.088;2023-03-01T05:26:07;7.00;;;6.30;;
15063;SDS011;7631;52.088;5.088;2023-03-01T05:28:33;6.10;;;5.30;;
15063;SDS011;7631;52.088;5.088;2023-03-01T05:30:59;5.50;;;5.00;;
15063;SDS011;7631;52.088;5.088;2023-03-01T05:33:24;6.67;;;5.97;;
15063;SDS011;7631;52.088;5.088;2023-03-01T05:35:50;7.07;;;6.30;;
15063;SDS011;7631;52.088;5.088;2023-03-01T05:38:16;7.03;;;6.00;;
15063;SDS011;7631;52.088;5.088;2023-03-01T05:40:42;7.43;;;6.20;;
15063;SDS011;7631;52.088;5.088;2023-03-01T05:43:08;7.67;;;6.10;;
15063;SDS011;7631;52.088;5.088;2023-03-01T05:45:35;6.37;;;5.67;;
15063;SDS011;7631;52.088;5.088;2023-03-01T05:48:00;7.80;;;6.30;;
15063;SDS011;7631;52.088;5.088;2023-03-01T05:50:27;6.40;;;5.40;;
15063;SDS011;7631;52.088;5.088;2023-03-01T05:52:57;6.73;;;6.07;;
15063;SDS011;7631;52.088;5.088;2023-03-01T05:55:22;7.43;;;6.33;;
15063;SDS011;7631;52.088;5.088;2023-03-01T05:57:48;7.77;;;6.37;;
15063;SDS011;7631;52.088;5.088;2023-03-01T06:00:13;7.17;;;6.17;;
15063;SDS011;7631;52.088;5.088;2023-03-01T06:02:40;7.90;;;6.57;;
15063;SDS011;7631;52.088;5.088;2023-03-01T06:05:06;7.03;;;6.13;;
15063;SDS011;7631;52.088;5.088;2023-03-01T06:07:32;7.37;;;6.50;;
15063;SDS011;7631;52.088;5.088;2023-03-01T06:09:57;8.33;;;6.90;;
15063;SDS011;7631;52.088;5.088;2023-03-01T06:12:22;8.60;;;6.93;;
15063;SDS011;7631;52.088;5.088;2023-03-01T06:14:47;8.73;;;7.20;;
15063;SDS011;7631;52.088;5.088;2023-03-01T06:17:13;8.07;;;7.20;;
15063;SDS011;7631;52.088;5.088;2023-03-01T06:19:38;8.23;;;6.73;;
15063;SDS011;7631;52.088;5.088;2023-03-01T06:22:03;7.60;;;6.80;;
15063;SDS011;7631;52.088;5.088;2023-03-01T06:24:29;8.87;;;7.17;;
15063;SDS011;7631;52.088;5.088;2023-03-01T06:26:54;8.43;;;7.17;;
15063;SDS011;7631;52.088;5.088;2023-03-01T06:29:20;8.37;;;7.20;;
15063;SDS011;7631;52.088;5.088;2023-03-01T06:31:45;9.67;;;7.37;;
15063;SDS011;7631;52.088;5.088;2023-03-01T06:34:11;7.43;;;6.63;;
15063;SDS011;7631;52.088;5.088;2023-03-01T06:36:38;8.47;;;6.90;;
15063;SDS011;7631;52.088;5.088;2023-03-01T06:39:03;9.60;;;7.33;;
15063;SDS011;7631;52.088;5.088;2023-03-01T06:41:30;8.20;;;6.60;;
15063;SDS011;7631;52.088;5.088;2023-03-01T06:43:55;9.27;;;7.17;;
15063;SDS011;7631;52.088;5.088;2023-03-01T06:46:20;8.27;;;7.20;;
15063;SDS011;7631;52.088;5.088;2023-03-01T06:48:46;8.37;;;6.80;;
15063;SDS011;7631;52.088;5.088;2023-03-01T06:51:11;7.40;;;6.43;;
15063;SDS011;7631;52.088;5.088;2023-03-01T06:53:36;9.10;;;7.40;;
15063;SDS011;7631;52.088;5.088;2023-03-01T06:56:02;9.37;;;7.20;;
15063;SDS011;7631;52.088;5.088;2023-03-01T06:58:27;8.40;;;7.23;;
15063;SDS011;7631;52.088;5.088;2023-03-01T07:00:52;8.30;;;7.00;;
15063;SDS011;7631;52.088;5.088;2023-03-01T07:03:17;8.40;;;7.10;;
15063;SDS011;7631;52.088;5.088;2023-03-01T07:05:43;8.73;;;7.13;;
15063;SDS011;7631;52.088;5.088;2023-03-01T07:08:09;8.50;;;7.60;;
15063;SDS011;7631;52.088;5.088;2023-03-01T07:10:34;8.63;;;7.10;;
15063;SDS011;7631;52.088;5.088;2023-03-01T07:12:59;8.60;;;6.97;;
15063;SDS011;7631;52.088;5.088;2023-03-01T07:15:25;8.70;;;7.63;;
15063;SDS011;7631;52.088;5.088;2023-03-01T07:17:51;10.07;;;7.77;;
15063;SDS011;7631;52.088;5.088;2023-03-01T07:20:17;9.27;;;7.73;;
15063;SDS011;7631;52.088;5.088;2023-03-01T07:22:42;10.27;;;8.00;;
15063;SDS011;7631;52.088;5.088;2023-03-01T07:25:08;9.87;;;7.33;;
15063;SDS011;7631;52.088;5.088;2023-03-01T07:27:33;9.93;;;7.57;;
15063;SDS011;7631;52.088;5.088;2023-03-01T07:29:59;11.27;;;8.70;;
15063;SDS011;7631;52.088;5.088;2023-03-01T07:32:24;9.70;;;7.83;;
15063;SDS011;7631;52.088;5.088;2023-03-01T07:34:50;9.23;;;8.00;;
15063;SDS011;7631;52.088;5.088;2023-03-01T07:37:16;9.27;;;7.73;;
15063;SDS011;7631;52.088;5.088;2023-03-01T07:39:41;9.03;;;7.97;;
15063;SDS011;7631;52.088;5.088;2023-03-01T07:42:07;8.73;;;7.30;;
15063;SDS011;7631;52.088;5.088;2023-03-01T07:44:32;10.80;;;8.37;;
15063;SDS011;7631;52.088;5.088;2023-03-01T07:46:57;10.10;;;8.17;;
15063;SDS011;7631;52.088;5.088;2023-03-01T07:49:23;10.70;;;8.70;;
15063;SDS011;7631;52.088;5.088;2023-03-01T07:51:48;9.80;;;8.23;;
15063;SDS011;7631;52.088;5.088;2023-03-01T07:54:13;9.60;;;7.97;;
15063;SDS011;7631;52.088;5.088;2023-03-01T07:56:38;9.67;;;8.33;;
15063;SDS011;7631;52.088;5.088;2023-03-01T07:59:05;9.97;;;8.20;;
15063;SDS011;7631;52.088;5.088;2023-03-01T08:01:30;9.77;;;7.70;;
15063;SDS011;7631;52.088;5.088;2023-03-01T08:03:56;9.23;;;7.63;;
15063;SDS011;7631;52.088;5.088;2023-03-01T08:06:21;10.03;;;8.13;;
15063;SDS011;7631;52.088;5.088;2023-03-01T08:08:46;11.13;;;8.30;;
15063;SDS011;7631;52.088;5.088;2023-03-01T08:11:12;10.83;;;8.50;;
15063;SDS011;7631;52.088;5.088;2023-03-01T08:13:38;9.27;;;8.20;;
15063;SDS011;7631;52.088;5.088;2023-03-01T08:16:04;9.77;;;7.93;;
15063;SDS011;7631;52.088;5.088;2023-03-01T08:18:30;11.47;;;8.50;;
15063;SDS011;7631;52.088;5.088;2023-03-01T08:20:55;10.33;;;8.73;;
15063;SDS011;7631;52.088;5.088;2023-03-01T08:23:21;8.77;;;7.80;;
15063;SDS011;7631;52.088;5.088;2023-03-01T08:25:46;10.10;;;7.80;;
15063;SDS011;7631;52.088;5.088;2023-03-01T08:28:11;8.63;;;7.47;;
15063;SDS011;7631;52.088;5.088;2023-03-01T08:30:37;11.40;;;7.67;;
15063;SDS011;7631;52.088;5.088;2023-03-01T08:33:02;9.93;;;7.83;;
15063;SDS011;7631;52.088;5.088;2023-03-01T08:35:27;9.00;;;7.47;;
15063;SDS011;7631;52.088;5.088;2023-03-01T08:37:52;9.00;;;7.60;;
15063;SDS011;7631;52.088;5.088;2023-03-01T08:40:17;8.80;;;7.90;;
15063;SDS011;7631;52.088;5.088;2023-03-01T08:42:43;8.93;;;7.20;;
15063;SDS011;7631;52.088;5.088;2023-03-01T08:45:08;9.47;;;8.00;;
15063;SDS011;7631;52.088;5.088;2023-03-01T08:47:33;9.07;;;7.43;;
15063;SDS011;7631;52.088;5.088;2023-03-01T08:49:59;9.30;;;7.00;;
15063;SDS011;7631;52.088;5.088;2023-03-01T08:52:24;10.53;;;7.63;;
15063;SDS011;7631;52.088;5.088;2023-03-01T08:54:51;9.00;;;7.27;;
15063;SDS011;7631;52.088;5.088;2023-03-01T08:57:16;8.17;;;6.63;;
15063;SDS011;7631;52.088;5.088;2023-03-01T08:59:41;8.80;;;7.60;;
15063;SDS011;7631;52.088;5.088;2023-03-01T09:02:16;7.73;;;6.87;;
15063;SDS011;7631;52.088;5.088;2023-03-01T09:04:42;7.70;;;6.90;;
15063;SDS011;7631;52.088;5.088;2023-03-01T09:07:07;8.67;;;6.93;;
15063;SDS011;7631;52.088;5.088;2023-03-01T09:09:33;7.63;;;6.83;;
15063;SDS011;7631;52.088;5.088;2023-03-01T09:11:58;8.07;;;6.70;;
15063;SDS011;7631;52.088;5.088;2023-03-01T09:14:23;8.37;;;6.73;;
15063;SDS011;7631;52.088;5.088;2023-03-01T09:16:49;8.57;;;6.70;;
15063;SDS011;7631;52.088;5.088;2023-03-01T09:19:14;8.47;;;6.27;;
15063;SDS011;7631;52.088;5.088;2023-03-01T09:21:39;8.03;;;6.30;;
15063;SDS011;7631;52.088;5.088;2023-03-01T09:24:05;7.50;;;6.23;;
15063;SDS011;7631;52.088;5.088;2023-03-01T09:26:30;8.27;;;6.77;;
15063;SDS011;7631;52.088;5.088;2023-03-01T09:28:56;7.30;;;6.50;;
15063;SDS011;7631;52.088;5.088;2023-03-01T09:31:22;7.63;;;6.10;;
15063;SDS011;7631;52.088;5.088;2023-03-01T09:33:48;8.70;;;6.53;;
15063;SDS011;7631;52.088;5.088;2023-03-01T09:36:16;7.40;;;6.50;;
15063;SDS011;7631;52.088;5.088;2023-03-01T09:38:41;7.43;;;6.40;;
15063;SDS011;7631;52.088;5.088;2023-03-01T09:41:10;7.00;;;6.17;;
15063;SDS011;7631;52.088;5.088;2023-03-01T09:43:50;7.80;;;6.27;;
15063;SDS011;7631;52.088;5.088;2023-03-01T09:46:19;7.93;;;6.30;;
15063;SDS011;7631;52.088;5.088;2023-03-01T09:48:48;7.77;;;6.17;;
15063;SDS011;7631;52.088;5.088;2023-03-01T09:51:17;8.33;;;6.40;;
15063;SDS011;7631;52.088;5.088;2023-03-01T09:53:43;7.30;;;5.60;;
15063;SDS011;7631;52.088;5.088;2023-03-01T10:03:41;9.27;;;6.77;;
15063;SDS011;7631;52.088;5.088;2023-03-01T10:06:14;8.47;;;6.63;;
15063;SDS011;7631;52.088;5.088;2023-03-01T10:08:56;7.77;;;6.23;;
15063;SDS011;7631;52.088;5.088;2023-03-01T10:19:03;7.73;;;6.57;;
15063;SDS011;7631;52.088;5.088;2023-03-01T10:21:29;7.20;;;6.00;;
15063;SDS011;7631;52.088;5.088;2023-03-01T10:23:56;6.90;;;5.73;;
15063;SDS011;7631;52.088;5.088;2023-03-01T10:26:43;6.83;;;5.70;;
15063;SDS011;7631;52.088;5.088;2023-03-01T10:29:10;6.60;;;5.90;;
15063;SDS011;7631;52.088;5.088;2023-03-01T10:31:40;7.07;;;5.73;;
15063;SDS011;7631;52.088;5.088;2023-03-01T10:34:09;6.83;;;5.10;;
15063;SDS011;7631;52.088;5.088;2023-03-01T10:36:34;7.03;;;6.23;;
15063;SDS011;7631;52.088;5.088;2023-03-01T10:39:00;7.07;;;5.40;;
15063;SDS011;7631;52.088;5.088;2023-03-01T10:41:35;6.07;;;5.53;;
15063;SDS011;7631;52.088;5.088;2023-03-01T10:44:05;6.80;;;6.10;;
15063;SDS011;7631;52.088;5.088;2023-03-01T10:51:30;6.17;;;4.87;;
15063;SDS011;7631;52.088;5.088;2023-03-01T10:53:55;5.77;;;4.63;;
15063;SDS011;7631;52.088;5.088;2023-03-01T10:56:20;6.13;;;5.43;;
15063;SDS011;7631;52.088;5.088;2023-03-01T10:58:59;5.53;;;4.93;;
15063;SDS011;7631;52.088;5.088;2023-03-01T11:01:31;5.30;;;4.80;;
15063;SDS011;7631;52.088;5.088;2023-03-01T11:06:31;7.10;;;4.93;;
15063;SDS011;7631;52.088;5.088;2023-03-01T11:08:57;6.30;;;5.07;;
15063;SDS011;7631;52.088;5.088;2023-03-01T11:11:37;5.40;;;4.90;;
15063;SDS011;7631;52.088;5.088;2023-03-01T11:14:18;5.20;;;4.33;;
15063;SDS011;7631;52.088;5.088;2023-03-01T11:16:45;5.40;;;4.90;;
15063;SDS011;7631;52.088;5.088;2023-03-01T11:21:38;5.30;;;4.47;;
15063;SDS011;7631;52.088;5.088;2023-03-01T11:24:06;5.63;;;4.70;;
15063;SDS011;7631;52.088;5.088;2023-03-01T11:26:31;5.57;;;4.40;;
15063;SDS011;7631;52.088;5.088;2023-03-01T11:29:00;5.80;;;4.53;;
15063;SDS011;7631;52.088;5.088;2023-03-01T11:31:27;5.30;;;4.17;;
15063;SDS011;7631;52.088;5.088;2023-03-01T11:33:54;5.10;;;4.60;;
15063;SDS011;7631;52.088;5.088;2023-03-01T11:38:53;4.90;;;4.30;;
15063;SDS011;7631;52.088;5.088;2023-03-01T11:41:23;5.20;;;4.70;;
15063;SDS011;7631;52.088;5.088;2023-03-01T11:54:06;5.27;;;4.47;;
15063;SDS011;7631;52.088;5.088;2023-03-01T11:56:41;5.00;;;4.30;;
15063;SDS011;7631;52.088;5.088;2023-03-01T12:07:00;4.77;;;4.27;;
15063;SDS011;7631;52.088;5.088;2023-03-01T12:09:41;5.80;;;4.37;;
15063;SDS011;7631;52.088;5.088;2023-03-01T12:12:11;5.23;;;4.27;;
15063;SDS011;7631;52.088;5.088;2023-03-01T12:24:54;3.87;;;3.50;;
15063;SDS011;7631;52.088;5.088;2023-03-01T12:38:01;4.83;;;3.50;;
15063;SDS011;7631;52.088;5.088;2023-03-01T12:46:05;4.07;;;3.50;;
15063;SDS011;7631;52.088;5.088;2023-03-01T12:48:39;4.60;;;3.10;;
15063;SDS011;7631;52.088;5.088;2023-03-01T12:51:10;4.83;;;3.30;;
15063;SDS011;7631;52.088;5.088;2023-03-01T12:53:41;3.87;;;3.13;;
15063;SDS011;7631;52.088;5.088;2023-03-01T12:56:10;3.40;;;3.10;;
15063;SDS011;7631;52.088;5.088;2023-03-01T12:58:41;3.80;;;3.20;;
15063;SDS011;7631;52.088;5.088;2023-03-01T13:06:12;4.40;;;3.10;;
15063;SDS011;7631;52.088;5.088;2023-03-01T13:08:43;3.40;;;3.10;;
15063;SDS011;7631;52.088;5.088;2023-03-01T13:11:20;4.70;;;3.30;;
15063;SDS011;7631;52.088;5.088;2023-03-01T13:13:47;3.37;;;2.83;;
15063;SDS011;7631;52.088;5.088;2023-03-01T13:19:16;3.33;;;2.73;;
15063;SDS011;7631;52.088;5.088;2023-03-01T13:21:42;3.80;;;3.33;;
15063;SDS011;7631;52.088;5.088;2023-03-01T13:24:28;3.23;;;2.90;;
15063;SDS011;7631;52.088;5.088;2023-03-01T13:29:47;4.07;;;3.30;;
15063;SDS011;7631;52.088;5.088;2023-03-01T13:32:31;3.00;;;2.70;;
15063;SDS011;7631;52.088;5.088;2023-03-01T13:34:58;2.93;;;2.50;;
15063;SDS011;7631;52.088;5.088;2023-03-01T13:37:34;3.60;;;3.23;;
15063;SDS011;7631;52.088;5.088;2023-03-01T13:40:00;3.17;;;2.87;;
15063;SDS011;7631;52.088;5.088;2023-03-01T13:42:34;5.07;;;3.30;;
15063;SDS011;7631;52.088;5.088;2023-03-01T13:45:00;3.13;;;2.77;;
15063;SDS011;7631;52.088;5.088;2023-03-01T13:47:25;4.23;;;3.30;;
15063;SDS011;7631;52.088;5.088;2023-03-01T13:49:53;3.57;;;2.87;;
15063;SDS011;7631;52.088;5.088;2023-03-01T13:52:28;3.53;;;2.87;;
15063;SDS011;7631;52.088;5.088;2023-03-01T13:54:55;4.70;;;3.13;;
15063;SDS011;7631;52.088;5.088;2023-03-01T13:57:22;3.97;;;3.07;;
15063;SDS011;7631;52.088;5.088;2023-03-01T13:59:48;3.60;;;3.13;;
15063;SDS011;7631;52.088;5.088;2023-03-01T14:02:14;3.10;;;2.63;;
15063;SDS011;7631;52.088;5.088;2023-03-01T14:04:39;3.23;;;2.93;;
15063;SDS011;7631;52.088;5.088;2023-03-01T14:07:38;3.90;;;2.93;;
15063;SDS011;7631;52.088;5.088;2023-03-01T14:10:02;3.33;;;2.83;;
15063;SDS011;7631;52.088;5.088;2023-03-01T14:15:04;3.00;;;2.50;;
15063;SDS011;7631;52.088;5.088;2023-03-01T14:20:00;3.50;;;2.90;;
15063;SDS011;7631;52.088;5.088;2023-03-01T14:22:32;3.40;;;3.03;;
15063;SDS011;7631;52.088;5.088;2023-03-01T14:25:03;4.10;;;2.73;;
15063;SDS011;7631;52.088;5.088;2023-03-01T14:27:35;2.90;;;2.60;;
15063;SDS011;7631;52.088;5.088;2023-03-01T14:30:02;3.20;;;2.70;;
15063;SDS011;7631;52.088;5.088;2023-03-01T14:32:29;3.90;;;2.80;;
15063;SDS011;7631;52.088;5.088;2023-03-01T14:34:55;3.97;;;2.80;;
15063;SDS011;7631;52.088;5.088;2023-03-01T14:37:31;3.43;;;2.90;;
15063;SDS011;7631;52.088;5.088;2023-03-01T14:39:58;3.07;;;2.67;;
15063;SDS011;7631;52.088;5.088;2023-03-01T14:42:24;2.83;;;2.50;;
15063;SDS011;7631;52.088;5.088;2023-03-01T14:44:52;3.17;;;2.83;;
15063;SDS011;7631;52.088;5.088;2023-03-01T14:47:28;3.67;;;2.97;;
15063;SDS011;7631;52.088;5.088;2023-03-01T14:50:40;3.00;;;2.50;;
15063;SDS011;7631;52.088;5.088;2023-03-01T14:52:44;3.83;;;3.13;;
15063;SDS011;7631;52.088;5.088;2023-03-01T14:55:16;3.70;;;2.97;;
15063;SDS011;7631;52.088;5.088;2023-03-01T14:57:43;3.57;;;2.90;;
15063;SDS011;7631;52.088;5.088;2023-03-01T15:00:10;3.17;;;2.87;;
15063;SDS011;7631;52.088;5.088;2023-03-01T15:02:40;3.20;;;2.90;;
15063;SDS011;7631;52.088;5.088;2023-03-01T15:05:08;3.47;;;2.90;;
15063;SDS011;7631;52.088;5.088;2023-03-01T15:07:34;3.03;;;2.73;;
15063;SDS011;7631;52.088;5.088;2023-03-01T15:10:00;3.80;;;3.17;;
15063;SDS011;7631;52.088;5.088;2023-03-01T15:14:54;3.47;;;3.00;;
15063;SDS011;7631;52.088;5.088;2023-03-01T15:17:38;3.20;;;2.90;;
15063;SDS011;7631;52.088;5.088;2023-03-01T15:20:14;3.50;;;2.97;;
15063;SDS011;7631;52.088;5.088;2023-03-01T15:22:43;3.30;;;2.87;;
15063;SDS011;7631;52.088;5.088;2023-03-01T15:25:20;4.43;;;2.80;;
15063;SDS011;7631;52.088;5.088;2023-03-01T15:27:46;3.17;;;2.50;;
15063;SDS011;7631;52.088;5.088;2023-03-01T15:30:19;3.63;;;2.80;;
15063;SDS011;7631;52.088;5.088;2023-03-01T15:32:45;3.17;;;2.70;;
15063;SDS011;7631;52.088;5.088;2023-03-01T15:37:54;4.10;;;2.80;;
15063;SDS011;7631;52.088;5.088;2023-03-01T15:40:24;3.23;;;2.93;;
15063;SDS011;7631;52.088;5.088;2023-03-01T15:42:56;3.07;;;2.77;;
15063;SDS011;7631;52.088;5.088;2023-03-01T15:45:23;3.40;;;2.60;;
15063;SDS011;7631;52.088;5.088;2023-03-01T15:47:50;4.20;;;3.03;;
15063;SDS011;7631;52.088;5.088;2023-03-01T15:50:17;3.07;;;2.77;;
15063;SDS011;7631;52.088;5.088;2023-03-01T15:52:43;3.50;;;3.00;;
15063;SDS011;7631;52.088;5.088;2023-03-01T15:55:16;3.20;;;2.90;;
15063;SDS011;7631;52.088;5.088;2023-03-01T15:57:42;3.50;;;3.17;;
15063;SDS011;7631;52.088;5.088;2023-03-01T16:00:10;4.40;;;3.03;;
15063;SDS011;7631;52.088;5.088;2023-03-01T16:02:39;3.80;;;2.80;;
15063;SDS011;7631;52.088;5.088;2023-03-01T16:05:04;3.37;;;3.00;;
15063;SDS011;7631;52.088;5.088;2023-03-01T16:07:30;3.57;;;2.73;;
15063;SDS011;7631;52.088;5.088;2023-03-01T16:09:56;3.57;;;3.00;;
15063;SDS011;7631;52.088;5.088;2023-03-01T16:12:21;3.57;;;2.90;;
15063;SDS011;7631;52.088;5.088;2023-03-01T16:14:46;3.30;;;2.77;;
15063;SDS011;7631;52.088;5.088;2023-03-01T16:17:13;4.50;;;3.20;;
15063;SDS011;7631;52.088;5.088;2023-03-01T16:19:38;4.33;;;2.80;;
15063;SDS011;7631;52.088;5.088;2023-03-01T16:22:04;3.97;;;2.70;;
15063;SDS011;7631;52.088;5.088;2023-03-01T16:24:29;3.43;;;3.00;;
15063;SDS011;7631;52.088;5.088;2023-03-01T16:26:54;3.23;;;2.90;;
15063;SDS011;7631;52.088;5.088;2023-03-01T16:29:20;3.37;;;2.57;;
15063;SDS011;7631;52.088;5.088;2023-03-01T16:31:45;3.73;;;2.90;;
15063;SDS011;7631;52.088;5.088;2023-03-01T16:34:10;4.50;;;3.07;;
15063;SDS011;7631;52.088;5.088;2023-03-01T16:36:35;3.27;;;2.80;;